Time;durP1;ratioP1;P1;durP2;ratioP2;P2;SDS_P1;SDS_P2;PMS_P1;PMS_P2;Temp;Humidity;BMP_temperature;BMP_pressure;BME280_temperature;BME280_humidity;BME280_pressure;Samples;Min_cycle;Max_cycle;Signal;HPM_P1;HPM_P2
2023/10/18 00:01:39;;;;;;;16.92;8.65;;;;;;;5.59;100.00;101221.03;5094018;28;20028;-82
2023/10/18 00:04:04;;;;;;;15.60;8.13;;;;;;;5.59;100.00;101218.44;5094909;28;20036;-82
2023/10/18 00:06:31;;;;;;;16.02;7.65;;;;;;;5.54;100.00;101208.09;5095675;28;20278;-82
2023/10/18 00:09:38;;;;;;;;;;;;;;;5.60;100.00;101216.72;5095271;28;20030;-82
2023/10/18 00:11:47;;;;;;;14.52;7.13;;;;;;;5.55;100.00;101204.69;5094832;28;19974;-82
2023/10/18 00:14:13;;;;;;;13.18;7.00;;;;;;;5.54;100.00;101210.69;5095346;28;20028;-82
2023/10/18 00:16:41;;;;;;;15.40;8.00;;;;;;;5.55;100.00;101201.22;5094751;28;20028;-82
2023/10/18 00:19:06;;;;;;;13.60;7.10;;;;;;;5.58;100.00;101203.84;5095139;28;20472;-82
2023/10/18 00:21:32;;;;;;;14.98;7.30;;;;;;;5.56;100.00;101202.97;5094295;28;20028;-82
2023/10/18 00:23:58;;;;;;;15.17;7.80;;;;;;;5.56;100.00;101197.81;5094422;28;20044;-82
2023/10/18 00:26:23;;;;;;;14.77;7.40;;;;;;;5.53;100.00;101196.06;5094919;28;20052;-81
2023/10/18 00:29:07;;;;;;;13.63;6.87;;;;;;;5.55;100.00;101201.22;5095213;28;20042;-82
2023/10/18 00:31:32;;;;;;;16.85;8.63;;;;;;;5.52;100.00;101207.22;5094976;28;20051;-81
2023/10/18 00:34:12;;;;;;;14.98;7.72;;;;;;;5.56;100.00;101190.09;5094948;28;20109;-81
2023/10/18 00:36:38;;;;;;;15.85;8.15;;;;;;;5.50;100.00;101195.19;5094079;28;20028;-81
2023/10/18 00:44:54;;;;;;;18.10;8.95;;;;;;;5.46;100.00;101201.13;5094128;28;20446;-82
2023/10/18 00:47:20;;;;;;;17.05;8.35;;;;;;;5.45;100.00;101200.28;5094742;28;20035;-81
2023/10/18 00:49:46;;;;;;;15.27;7.97;;;;;;;5.47;100.00;101203.72;5094549;28;20388;-82
2023/10/18 00:52:15;;;;;;;16.75;8.43;;;;;;;5.43;100.00;101193.38;5094044;28;20460;-82
2023/10/18 00:54:44;;;;;;;15.95;7.70;;;;;;;5.40;100.00;101177.03;5094584;28;20452;-82
2023/10/18 00:57:11;;;;;;;15.38;7.82;;;;;;;5.40;100.00;101178.75;5093578;28;20024;-82
2023/10/18 00:59:38;;;;;;;13.05;7.13;;;;;;;5.44;100.00;101180.53;5094297;28;20081;-82
2023/10/18 01:02:13;;;;;;;15.15;8.35;;;;;;;5.32;100.00;101168.38;5094552;28;20096;-82
2023/10/18 01:04:42;;;;;;;15.85;7.88;;;;;;;5.42;100.00;101184.78;5093852;28;20028;-81
2023/10/18 01:07:15;;;;;;;17.65;8.48;;;;;;;5.35;100.00;101173.56;5093714;28;20031;-82
2023/10/18 01:09:47;;;;;;;17.52;8.93;;;;;;;5.33;100.00;101169.25;5094150;28;20094;-82
2023/10/18 01:12:14;;;;;;;15.77;8.07;;;;;;;5.35;100.00;101163.25;5092921;28;20080;-82
2023/10/18 01:14:42;;;;;;;17.65;8.10;;;;;;;5.36;100.00;101158.97;5094171;28;20024;-82
2023/10/18 01:17:08;;;;;;;14.80;8.00;;;;;;;5.38;100.00;101150.44;5094088;28;20049;-82
2023/10/18 01:19:34;;;;;;;15.32;7.75;;;;;;;5.34;100.00;101151.22;5093618;28;20020;-82
2023/10/18 01:21:59;;;;;;;17.13;8.75;;;;;;;5.34;100.00;101143.50;5094349;28;20024;-82
2023/10/18 01:24:35;;;;;;;15.60;8.10;;;;;;;5.31;100.00;101146.03;5093769;28;20020;-82
2023/10/18 01:27:04;;;;;;;17.45;8.73;;;;;;;5.37;100.00;101138.41;5093710;28;20165;-82
2023/10/18 01:29:31;;;;;;;21.25;9.35;;;;;;;5.30;100.00;101123.72;5093651;28;20055;-82
2023/10/18 01:31:57;;;;;;;18.33;9.27;;;;;;;5.27;100.00;101126.28;5094143;28;20389;-82
2023/10/18 01:34:22;;;;;;;17.25;9.07;;;;;;;5.30;100.00;101126.28;5093376;28;20028;-82
2023/10/18 01:36:49;;;;;;;15.47;8.07;;;;;;;5.29;100.00;101116.00;5093802;28;20016;-82
2023/10/18 01:39:21;;;;;;;15.95;8.27;;;;;;;5.30;100.00;101113.44;5092621;28;20016;-81
2023/10/18 01:41:51;;;;;;;15.68;7.65;;;;;;;5.37;100.00;101116.94;5093405;28;20031;-82
2023/10/18 01:44:19;;;;;;;15.90;7.70;;;;;;;5.25;100.00;101104.81;5093306;28;20057;-82
2023/10/18 01:46:55;;;;;;;17.02;8.40;;;;;;;5.32;100.00;101108.31;5092848;28;20037;-82
2023/10/18 01:49:21;;;;;;;;;;;;;;;5.35;100.00;101098.91;5093497;28;20111;-82
2023/10/18 01:51:51;;;;;;;17.17;8.90;;;;;;;5.28;100.00;101096.25;5093574;28;19987;-82
2023/10/18 01:54:16;;;;;;;17.63;8.90;;;;;;;5.25;100.00;101089.38;5092742;28;20028;-82
2023/10/18 01:56:43;;;;;;;17.65;9.10;;;;;;;5.28;100.00;101091.09;5093373;28;20469;-82
2023/10/18 01:59:13;;;;;;;16.13;8.55;;;;;;;5.25;100.00;101079.94;5093328;28;20487;-82
2023/10/18 02:01:38;;;;;;;18.35;9.38;;;;;;;5.24;100.00;101080.78;5092720;28;20111;-82
2023/10/18 02:04:10;;;;;;;17.10;9.18;;;;;;;5.28;100.00;101075.66;5092861;28;20047;-82
2023/10/18 02:06:36;;;;;;;18.55;8.75;;;;;;;5.28;100.00;101073.97;5093452;28;20028;-81
2023/10/18 02:09:08;;;;;;;17.20;8.75;;;;;;;5.25;100.00;101076.50;5093073;28;20354;-82
2023/10/18 02:11:35;;;;;;;17.58;8.88;;;;;;;5.25;100.00;101073.94;5093578;28;20361;-82
2023/10/18 02:14:01;;;;;;;17.83;9.18;;;;;;;5.23;100.00;101067.91;5093404;28;20080;-81
2023/10/18 02:16:28;;;;;;;17.33;8.68;;;;;;;5.20;100.00;101067.84;5092244;28;20047;-82
2023/10/18 02:18:54;;;;;;;;;;;;;;;5.24;100.00;101059.34;5093623;28;20058;-82
2023/10/18 02:21:21;;;;;;;16.05;8.00;;;;;;;5.27;100.00;101061.94;5093256;28;19948;-82
2023/10/18 02:23:50;;;;;;;16.67;8.10;;;;;;;5.25;100.00;101066.22;5092435;28;20358;-82
2023/10/18 02:28:54;;;;;;;18.13;8.70;;;;;;;5.16;100.00;101060.97;5092512;28;20034;-82
2023/10/18 02:31:22;;;;;;;17.00;8.70;;;;;;;5.15;100.00;101051.53;5092530;28;20103;-82
2023/10/18 02:33:53;;;;;;;17.67;8.77;;;;;;;5.18;100.00;101055.00;5092899;28;20557;-82
2023/10/18 02:36:21;;;;;;;16.92;8.10;;;;;;;5.15;100.00;101048.94;5092139;28;20066;-82
2023/10/18 02:38:49;;;;;;;16.30;7.97;;;;;;;5.16;100.00;101042.97;5093056;28;20039;-81
2023/10/18 02:41:29;;;;;;;18.35;8.55;;;;;;;5.14;100.00;101047.22;5092565;28;20091;-82
2023/10/18 02:43:55;;;;;;;15.43;7.80;;;;;;;5.18;100.00;101043.84;5092807;28;20031;-81
2023/10/18 02:46:25;;;;;;;16.45;7.63;;;;;;;5.10;100.00;101044.59;5096907;28;20453;-81
2023/10/18 02:48:52;;;;;;;15.15;7.85;;;;;;;5.18;100.00;101038.69;5096950;28;20050;-82
2023/10/18 02:51:22;;;;;;;17.08;8.30;;;;;;;5.13;100.00;101025.75;5096199;28;20025;-81
2023/10/18 02:53:52;;;;;;;16.90;8.23;;;;;;;5.20;100.00;101031.84;5096721;28;20479;-82
2023/10/18 02:56:26;;;;;;;16.45;8.02;;;;;;;5.10;100.00;101028.31;5096376;28;20459;-82
2023/10/18 02:58:53;;;;;;;16.55;8.27;;;;;;;5.07;100.00;101029.13;5096326;28;20028;-82
2023/10/18 03:01:18;;;;;;;16.60;7.53;;;;;;;5.15;100.00;101036.09;5096509;28;20024;-82
2023/10/18 03:03:49;;;;;;;15.75;8.43;;;;;;;5.08;100.00;101025.72;5096227;28;20020;-81
2023/10/18 03:06:14;;;;;;;15.73;7.93;;;;;;;5.09;100.00;101022.31;5096533;28;20032;-81
2023/10/18 03:08:46;;;;;;;14.85;7.90;;;;;;;5.12;100.00;101018.91;5096530;28;20354;-81
2023/10/18 03:11:11;;;;;;;15.35;7.32;;;;;;;5.06;100.00;100999.13;5095556;28;20379;-81
2023/10/18 03:13:37;;;;;;;14.85;7.22;;;;;;;5.08;100.00;101000.00;5096765;28;20033;-82
2023/10/18 03:16:15;;;;;;;16.63;7.68;;;;;;;5.05;99.95;100997.41;5096345;28;20059;-81
2023/10/18 03:18:42;;;;;;;18.85;9.20;;;;;;;5.06;100.00;101005.97;5095787;28;20031;-82
2023/10/18 03:21:08;;;;;;;15.73;7.75;;;;;;;5.07;99.99;101000.84;5096284;28;20387;-81
2023/10/18 03:23:44;;;;;;;16.93;8.10;;;;;;;4.98;99.68;100990.47;5096163;28;20089;-82
2023/10/18 03:26:11;;;;;;;16.30;8.30;;;;;;;5.04;100.00;100998.25;5095348;28;20035;-81
2023/10/18 03:28:43;;;;;;;15.65;7.68;;;;;;;5.14;99.61;100994.03;5096521;28;20113;-81
2023/10/18 03:31:27;;;;;;;15.27;7.60;;;;;;;5.10;100.00;101000.03;5095770;28;20066;-82
2023/10/18 03:34:01;;;;;;;17.50;8.27;;;;;;;5.07;99.78;100995.69;5095572;28;20110;-82
2023/10/18 03:36:31;;;;;;;16.42;8.07;;;;;;;5.08;99.46;100992.28;5096442;28;20437;-81
2023/10/18 03:39:00;;;;;;;14.45;7.38;;;;;;;5.07;99.67;100989.69;5095552;28;20078;-81
2023/10/18 03:41:33;;;;;;;17.60;8.10;;;;;;;5.12;99.30;100984.59;5096042;28;20016;-82
2023/10/18 03:44:06;;;;;;;12.98;6.78;;;;;;;5.08;99.83;100978.56;5096158;28;20460;-82
2023/10/18 03:46:47;;;;;;;16.60;7.85;;;;;;;5.04;99.56;100969.09;5095458;28;20028;-82
2023/10/18 03:49:22;;;;;;;15.07;7.53;;;;;;;5.09;99.56;100970.00;5095744;28;20139;-82
2023/10/18 03:51:49;;;;;;;18.27;8.70;;;;;;;5.06;99.23;100955.41;5095923;28;20028;-82
2023/10/18 03:54:15;;;;;;;16.77;8.07;;;;;;;5.08;99.39;100956.25;5094494;28;20032;-81
2023/10/18 03:56:43;;;;;;;16.52;7.68;;;;;;;5.06;99.13;100946.81;5095798;28;20119;-82
2023/10/18 03:59:21;;;;;;;17.30;7.55;;;;;;;5.10;99.04;100946.84;5095585;28;20020;-81
2023/10/18 04:04:48;;;;;;;15.02;7.47;;;;;;;5.09;99.18;100936.56;5067295;28;20123;-82
2023/10/18 04:07:17;;;;;;;16.00;7.90;;;;;;;5.10;99.33;100938.28;5094754;28;20846;-82
2023/10/18 04:09:53;;;;;;;14.27;7.10;;;;;;;5.06;99.32;100939.97;5096006;28;20380;-82
2023/10/18 04:12:25;;;;;;;19.38;9.05;;;;;;;5.03;99.00;100937.38;5095544;28;20035;-82
2023/10/18 04:14:52;;;;;;;15.48;7.70;;;;;;;5.15;98.90;100933.19;5110723;22;20082;-82
2023/10/18 04:17:20;;;;;;;15.70;7.78;;;;;;;5.06;98.78;100921.09;5115520;28;20030;-82
2023/10/18 04:19:47;;;;;;;17.90;8.77;;;;;;;5.07;98.66;100918.50;5115700;28;20376;-82
2023/10/18 04:22:13;;;;;;;;;;;;;;;5.13;98.69;100924.56;5115217;28;20149;-81
2023/10/18 04:24:39;;;;;;;15.77;8.07;;;;;;;5.12;98.74;100925.41;5115491;28;20018;-81
2023/10/18 04:27:05;;;;;;;14.10;7.00;;;;;;;5.17;98.44;100914.31;5115353;28;20116;-81
2023/10/18 04:29:33;;;;;;;15.43;7.68;;;;;;;5.15;98.74;100916.00;5114668;28;20026;-81
2023/10/18 04:32:03;;;;;;;13.50;7.00;;;;;;;5.16;98.46;100904.88;5115265;28;20023;-81
2023/10/18 04:34:29;;;;;;;13.95;7.28;;;;;;;5.17;98.44;100913.47;5116140;28;20016;-82
2023/10/18 04:36:55;;;;;;;11.87;6.77;;;;;;;5.12;98.50;100900.56;5104724;28;20027;-81
2023/10/18 04:39:21;;;;;;;15.07;7.50;;;;;;;5.18;98.29;100907.47;5094984;28;20286;-82
2023/10/18 04:41:46;;;;;;;16.40;8.27;;;;;;;5.14;98.23;100893.69;5094590;28;20330;-81
2023/10/18 04:44:18;;;;;;;15.07;7.68;;;;;;;5.19;98.21;100886.91;5093525;28;20495;-82
2023/10/18 04:46:47;;;;;;;14.20;7.43;;;;;;;5.20;98.12;100895.47;5094862;28;20140;-81
2023/10/18 04:49:16;;;;;;;18.15;8.77;;;;;;;5.17;98.28;100883.44;5093685;28;20035;-81
2023/10/18 04:54:10;;;;;;;14.75;7.20;;;;;;;5.14;97.68;100873.13;5108711;28;20038;-82
2023/10/18 04:56:42;;;;;;;17.05;8.05;;;;;;;5.21;97.75;100874.91;5114292;28;20019;-82
2023/10/18 05:04:29;;;;;;;12.32;6.13;;;;;;;5.25;97.46;100875.78;5114032;28;20031;-82
2023/10/18 05:06:57;;;;;;;12.65;6.35;;;;;;;5.27;97.17;100884.38;5114395;28;20034;-82
2023/10/18 05:11:59;;;;;;;16.13;7.70;;;;;;;5.25;97.30;100873.22;5114210;28;20035;-82
2023/10/18 05:14:35;;;;;;;16.13;7.15;;;;;;;5.26;97.37;100862.06;5114387;28;20055;-81
2023/10/18 05:17:22;;;;;;;16.63;7.88;;;;;;;5.28;96.56;100850.09;5114721;28;20030;-82
2023/10/18 05:19:49;;;;;;;15.52;7.45;;;;;;;5.30;96.80;100863.78;5114488;28;20035;-82
2023/10/18 05:22:24;;;;;;;15.88;7.55;;;;;;;5.24;96.63;100863.78;5113715;28;20498;-82
2023/10/18 05:25:11;;;;;;;16.40;8.15;;;;;;;5.25;96.80;100842.34;5113222;28;20027;-82
2023/10/18 05:27:45;;;;;;;16.15;7.70;;;;;;;5.30;96.69;100858.66;5114503;28;20019;-82
2023/10/18 05:30:15;;;;;;;14.52;7.05;;;;;;;5.24;96.65;100846.59;5114245;28;20024;-81
2023/10/18 05:33:15;;;;;;;15.00;7.30;;;;;;;5.26;96.93;100851.78;5113639;28;20034;-82
2023/10/18 05:35:34;;;;;;;15.93;7.28;;;;;;;5.25;96.38;100848.31;5109179;28;20046;-82
2023/10/18 05:38:06;;;;;;;14.02;7.07;;;;;;;5.28;96.31;100859.50;5114321;28;20047;-82
2023/10/18 05:43:22;;;;;;;13.68;7.10;;;;;;;5.24;96.09;100853.47;5113875;28;20082;-82
2023/10/18 05:45:48;;;;;;;16.27;7.97;;;;;;;5.22;96.19;100848.34;5113204;28;20027;-81
2023/10/18 05:48:16;;;;;;;15.95;7.47;;;;;;;5.21;96.03;100850.88;5113971;28;20472;-81
2023/10/18 05:50:48;;;;;;;14.77;7.22;;;;;;;5.17;95.82;100841.44;5114112;28;20015;-82
2023/10/18 05:53:18;;;;;;;16.45;7.93;;;;;;;5.05;95.56;100813.88;5112644;28;20035;-80
2023/10/18 05:55:52;;;;;;;14.70;7.80;;;;;;;5.13;95.80;100835.38;5114368;28;20046;-82
2023/10/18 05:58:25;;;;;;;18.10;8.02;;;;;;;5.19;95.38;100830.28;5113741;28;20077;-81
2023/10/18 06:00:51;;;;;;;16.13;8.27;;;;;;;5.29;95.25;100830.34;5113016;28;20047;-82
2023/10/18 06:03:16;;;;;;;13.45;6.97;;;;;;;5.22;95.27;100824.28;5113454;28;20068;-82
2023/10/18 06:05:43;;;;;;;15.65;7.53;;;;;;;5.21;95.38;100826.03;5113558;28;20023;-81
2023/10/18 06:08:13;;;;;;;13.35;6.63;;;;;;;5.21;95.35;100820.00;5112765;28;20077;-81
2023/10/18 06:10:38;;;;;;;13.90;7.10;;;;;;;5.25;95.16;100826.91;5113757;28;20019;-82
2023/10/18 06:13:09;;;;;;;13.32;6.72;;;;;;;5.26;95.26;100821.75;5113534;28;20023;-85
2023/10/18 06:15:38;;;;;;;14.80;6.95;;;;;;;5.35;94.89;100828.66;5112623;28;20044;-82
2023/10/18 06:18:09;;;;;;;11.65;6.10;;;;;;;5.32;95.16;100823.50;5112762;28;20493;-81
2023/10/18 06:20:37;;;;;;;11.85;6.13;;;;;;;5.28;95.16;100811.47;5112454;28;20157;-81
2023/10/18 06:23:08;;;;;;;14.13;6.97;;;;;;;5.29;95.00;100809.75;5112971;28;20052;-81
2023/10/18 06:25:38;;;;;;;15.60;7.10;;;;;;;5.33;94.58;100811.50;5113395;28;20097;-81
2023/10/18 06:28:07;;;;;;;14.40;7.10;;;;;;;5.38;94.25;100812.38;5112644;28;20028;-82
2023/10/18 06:30:39;;;;;;;14.65;7.25;;;;;;;5.31;94.63;100796.03;5113398;28;20019;-82
2023/10/18 06:33:07;;;;;;;16.02;7.40;;;;;;;5.35;94.26;100791.75;5113071;28;20103;-82
2023/10/18 06:35:41;;;;;;;13.93;7.20;;;;;;;5.33;93.99;100781.47;5112721;28;20372;-82
2023/10/18 06:38:09;;;;;;;15.73;6.93;;;;;;;5.28;93.97;100772.00;5113383;28;20055;-82
2023/10/18 06:41:29;;;;;;;13.15;6.38;;;;;;;5.31;94.48;100766.88;5113352;28;20113;-82
2023/10/18 06:44:13;;;;;;;13.88;6.35;;;;;;;5.42;93.86;100780.66;5071979;28;20407;-82
2023/10/18 06:46:38;;;;;;;12.25;6.20;;;;;;;5.32;94.11;100761.72;5113502;28;20019;-82
2023/10/18 06:49:15;;;;;;;15.20;6.82;;;;;;;5.36;93.31;100762.59;5112109;28;20068;-82
2023/10/18 06:51:50;;;;;;;14.60;7.25;;;;;;;5.44;92.94;100767.78;5113059;28;20023;-83
2023/10/18 06:54:23;;;;;;;14.73;6.53;;;;;;;5.51;92.89;100765.25;5113036;28;20038;-82
2023/10/18 06:56:48;;;;;;;14.40;6.47;;;;;;;5.52;92.65;100766.97;5112209;28;20051;-82
2023/10/18 06:59:25;;;;;;;14.73;6.65;;;;;;;5.56;93.18;100763.59;5112942;28;20072;-80
2023/10/18 07:02:00;;;;;;;12.65;6.22;;;;;;;5.60;92.60;100763.56;5112383;28;20058;-81
2023/10/18 07:04:35;;;;;;;14.05;7.15;;;;;;;5.60;92.25;100756.72;5111867;28;20456;-81
2023/10/18 07:07:11;;;;;;;15.30;6.68;;;;;;;5.65;92.20;100759.31;5113379;28;20422;-82
2023/10/18 07:09:37;;;;;;;12.88;6.20;;;;;;;5.72;92.42;100748.16;5113119;28;20019;-82
2023/10/18 07:12:10;;;;;;;11.93;5.72;;;;;;;5.76;92.66;100755.06;5111808;28;20456;-81
2023/10/18 07:14:39;;;;;;;13.13;6.40;;;;;;;5.79;92.11;100749.94;5112773;28;20113;-82
2023/10/18 07:17:04;;;;;;;11.95;6.03;;;;;;;5.86;92.19;100761.06;5111562;28;20084;-82
2023/10/18 07:19:33;;;;;;;13.27;6.30;;;;;;;5.87;92.20;100744.78;5092608;28;20020;-82
2023/10/18 07:22:06;;;;;;;12.68;5.90;;;;;;;5.92;91.57;100735.34;5092544;28;20020;-82
2023/10/18 07:24:36;;;;;;;12.38;6.50;;;;;;;5.96;91.49;100744.81;5091721;28;20039;-81
2023/10/18 07:27:09;;;;;;;13.07;6.57;;;;;;;5.96;91.14;100734.50;5092326;28;20091;-81
2023/10/18 07:29:36;;;;;;;13.75;6.50;;;;;;;5.98;90.16;100743.06;5092938;28;20150;-81
2023/10/18 07:32:12;;;;;;;13.23;6.30;;;;;;;6.01;91.09;100727.66;5101179;28;20030;-82
2023/10/18 07:34:37;;;;;;;14.57;6.40;;;;;;;5.96;90.25;100711.31;5116485;28;20494;-82
2023/10/18 07:37:19;;;;;;;11.03;5.87;;;;;;;6.11;91.40;100730.25;5116111;28;20024;-84
2023/10/18 07:40:04;;;;;;;13.45;6.90;;;;;;;6.20;89.86;100722.53;5115581;28;20105;-84
2023/10/18 07:42:34;;;;;;;13.70;6.50;;;;;;;6.19;89.80;100713.09;5153795;22;20076;-83
2023/10/18 07:45:04;;;;;;;12.90;6.22;;;;;;;6.20;89.68;100708.78;5074762;28;20035;-83
2023/10/18 07:47:32;;;;;;;12.75;6.35;;;;;;;6.26;89.71;100716.50;5075733;28;20051;-84
2023/10/18 07:50:00;;;;;;;12.75;5.80;;;;;;;6.30;89.71;100713.97;5075432;28;20389;-85
2023/10/18 07:52:25;;;;;;;11.63;5.70;;;;;;;6.37;89.80;100711.38;5074697;28;20027;-84
2023/10/18 07:54:54;;;;;;;13.83;6.40;;;;;;;6.38;89.03;100697.63;5076671;28;20032;-87
2023/10/18 07:57:31;;;;;;;12.85;5.70;;;;;;;6.45;90.33;100704.50;5071421;28;20039;-87
2023/10/18 08:00:21;;;;;;;11.73;5.93;;;;;;;6.46;89.42;100688.16;5074672;28;20040;-87
2023/10/18 08:02:54;;;;;;;10.77;5.35;;;;;;;6.52;89.58;100689.88;5085371;28;20031;-87
2023/10/18 08:05:22;;;;;;;11.38;5.38;;;;;;;6.60;89.18;100701.03;5095087;28;20034;-84
2023/10/18 08:08:03;;;;;;;9.18;4.65;;;;;;;6.60;nan;100689.03;5086224;28;20093;-84
2023/10/18 08:10:28;;;;;;;10.55;5.20;;;;;;;6.73;89.33;100674.38;5095405;28;20043;-82
2023/10/18 08:13:16;;;;;;;10.67;5.70;;;;;;;6.78;88.84;100690.72;5095249;28;20063;-83
2023/10/18 08:15:50;;;;;;;13.63;6.40;;;;;;;6.82;87.24;100694.13;5095690;28;20020;-84
2023/10/18 08:18:16;;;;;;;14.35;6.90;;;;;;;6.91;86.84;100694.09;5155492;22;20096;-83
2023/10/18 08:25:51;;;;;;;12.38;5.90;;;;;;;7.23;87.48;100684.56;5095428;28;20046;-79
2023/10/18 08:28:17;;;;;;;14.40;7.10;;;;;;;7.42;86.50;100682.75;5094461;28;20024;-80
2023/10/18 08:31:03;;;;;;;13.20;6.70;;;;;;;7.41;84.32;100679.31;5102559;22;20047;-80
2023/10/18 08:33:28;;;;;;;14.55;6.97;;;;;;;7.49;85.02;100686.13;5056668;28;20033;-82
2023/10/18 08:35:58;;;;;;;12.90;6.00;;;;;;;7.57;85.69;100677.50;5052938;28;20359;-82
2023/10/18 08:38:26;;;;;;;13.50;7.03;;;;;;;7.54;85.79;100663.75;5054641;28;20393;-82
2023/10/18 08:41:11;;;;;;;12.48;6.32;;;;;;;7.67;85.94;100662.81;5054512;28;20025;-82
2023/10/18 08:43:48;;;;;;;12.40;6.28;;;;;;;7.68;84.80;100667.13;5053747;28;20017;-82
2023/10/18 08:46:13;;;;;;;;;;;;;;;7.77;85.37;100665.34;5054357;28;20029;-82
2023/10/18 08:48:42;;;;;;;14.93;6.97;;;;;;;7.77;83.46;100661.00;5054675;28;19932;-82
2023/10/18 08:51:09;;;;;;;14.73;6.85;;;;;;;7.73;83.65;100636.09;5053985;28;20031;-82
2023/10/18 08:53:41;;;;;;;15.23;7.57;;;;;;;7.82;82.48;100653.25;5058887;28;20523;-82
2023/10/18 08:56:08;;;;;;;15.43;7.18;;;;;;;7.82;83.84;100641.19;5053090;28;20025;-82
2023/10/18 08:58:35;;;;;;;15.07;7.35;;;;;;;7.79;83.15;100632.59;5054162;28;20021;-82
2023/10/18 09:03:29;;;;;;;14.82;7.32;;;;;;;7.88;84.18;100638.53;5073325;28;20036;-81
2023/10/18 09:06:04;;;;;;;13.07;7.00;;;;;;;7.94;84.31;100637.63;5073079;28;20051;-82
2023/10/18 09:08:35;;;;;;;14.13;6.30;;;;;;;8.08;85.09;100641.84;5074240;28;20057;-81
2023/10/18 09:11:09;;;;;;;11.10;6.05;;;;;;;8.22;85.27;100631.41;5073120;28;20150;-82
2023/10/18 09:16:20;;;;;;;11.38;6.32;;;;;;;8.35;83.90;100602.81;5073805;28;20051;-80
2023/10/18 09:18:48;;;;;;;11.47;5.90;;;;;;;8.52;83.76;100616.50;5072276;28;20473;-81
2023/10/18 09:23:40;;;;;;;14.43;7.17;;;;;;;8.59;81.75;100615.53;5072987;28;20060;-81
2023/10/18 09:26:10;;;;;;;14.95;7.13;;;;;;;8.64;80.98;100616.38;5073336;28;20024;-81
2023/10/18 09:32:32;;;;;;;15.60;7.20;;;;;;;8.77;80.22;100588.59;5073207;28;20437;-81
2023/10/18 09:35:13;;;;;;;14.00;6.97;;;;;;;8.81;80.98;100575.59;5068224;28;20477;-81
2023/10/18 09:37:39;;;;;;;12.23;6.25;;;;;;;8.96;81.04;100582.31;5072471;28;20102;-80
2023/10/18 09:40:05;;;;;;;13.47;7.20;;;;;;;9.08;80.60;100594.25;5072937;28;20048;-81
2023/10/18 09:42:31;;;;;;;13.00;6.65;;;;;;;9.19;80.55;100591.50;5073056;28;20029;-81
2023/10/18 09:44:56;;;;;;;12.83;6.70;;;;;;;9.28;78.61;100585.34;5072586;28;20029;-81
2023/10/18 09:47:26;;;;;;;12.13;6.20;;;;;;;9.47;80.32;100577.31;5072562;28;20456;-81
2023/10/18 09:49:54;;;;;;;13.70;7.03;;;;;;;9.54;78.79;100568.59;5072146;28;20028;-81
2023/10/18 09:52:23;;;;;;;12.18;6.50;;;;;;;9.66;76.95;100567.53;5072098;28;20020;-81
2023/10/18 09:54:50;;;;;;;12.98;6.50;;;;;;;9.72;77.97;100563.09;5072738;28;20176;-80
2023/10/18 09:57:35;;;;;;;11.70;5.90;;;;;;;9.84;78.44;100548.22;5072195;28;20452;-81
2023/10/18 10:00:13;;;;;;;14.65;7.18;;;;;;;9.99;76.73;100542.78;5095238;22;20050;-80
2023/10/18 10:02:39;;;;;;;12.27;6.68;;;;;;;10.05;76.50;100542.66;5093585;28;20028;-81
2023/10/18 10:05:11;;;;;;;10.80;5.80;;;;;;;10.13;77.54;100529.56;5092788;28;20081;-81
2023/10/18 10:07:41;;;;;;;15.07;7.30;;;;;;;10.08;75.64;100530.53;5092378;28;20024;-80
2023/10/18 10:10:08;;;;;;;13.07;6.75;;;;;;;10.15;74.46;100539.91;5098785;22;20197;-81
2023/10/18 10:12:34;;;;;;;14.57;7.03;;;;;;;10.12;75.80;100527.03;5093002;28;20028;-81
2023/10/18 10:15:00;;;;;;;14.27;7.15;;;;;;;10.14;75.04;100515.72;5092336;28;20544;-81
2023/10/18 10:17:31;;;;;;;13.40;7.23;;;;;;;10.39;74.48;100509.22;5092743;28;20054;-81
2023/10/18 10:20:10;;;;;;;15.18;7.25;;;;;;;10.24;75.40;100518.13;5092278;28;20020;-81
2023/10/18 10:22:45;;;;;;;12.20;6.43;;;;;;;10.33;76.30;100505.00;5093345;28;20028;-81
2023/10/18 10:25:31;;;;;;;14.77;7.20;;;;;;;10.46;74.38;100501.28;5092423;28;20064;-79
2023/10/18 10:27:59;;;;;;;15.23;7.25;;;;;;;10.48;74.42;100485.69;5092377;28;20028;-80
2023/10/18 10:30:34;;;;;;;12.35;6.93;;;;;;;10.60;74.89;100477.66;5092512;28;20020;-80
2023/10/18 10:33:05;;;;;;;14.27;6.55;;;;;;;10.68;74.08;100477.50;5092707;28;20460;-81
2023/10/18 10:35:35;;;;;;;13.05;6.50;;;;;;;10.75;74.17;100468.69;5092035;28;20495;-81
2023/10/18 10:38:01;;;;;;;12.18;6.20;;;;;;;10.87;75.93;100466.69;5092795;28;20012;-80
2023/10/18 10:43:02;;;;;;;14.27;6.90;;;;;;;10.91;75.30;100451.03;5092184;28;20032;-81
2023/10/18 10:45:38;;;;;;;16.65;7.40;;;;;;;11.01;73.46;100451.66;5093028;28;20040;-81
2023/10/18 10:48:49;;;;;;;13.55;7.00;;;;;;;11.01;73.77;100448.22;5091582;28;20044;-81
2023/10/18 10:51:16;;;;;;;13.57;6.60;;;;;;;11.23;74.54;100441.63;5090354;28;20061;-79
2023/10/18 10:54:08;;;;;;;13.38;6.80;;;;;;;11.21;74.30;100438.22;5092853;28;20024;-80
2023/10/18 10:56:33;;;;;;;12.38;6.30;;;;;;;11.24;75.95;100432.94;5090402;28;20028;-81
2023/10/18 11:04:25;;;;;;;15.60;6.88;;;;;;;11.37;75.68;100414.44;5092269;28;20449;-81
2023/10/18 11:06:57;;;;;;;14.63;6.68;;;;;;;11.38;75.69;100409.22;5096313;28;20028;-80
2023/10/18 11:09:38;;;;;;;13.57;6.43;;;;;;;11.49;75.30;100400.28;5095328;28;20078;-80
2023/10/18 11:12:11;;;;;;;14.77;7.45;;;;;;;11.43;74.80;100393.50;5096101;28;20023;-81
2023/10/18 11:14:37;;;;;;;13.65;6.72;;;;;;;11.53;74.61;100394.97;5096547;28;20099;-81
2023/10/18 11:19:53;;;;;;;13.48;6.65;;;;;;;11.66;75.40;100373.84;5095751;28;20070;-81
2023/10/18 11:22:29;;;;;;;9.05;5.40;;;;;;;11.80;75.64;100379.53;5095667;28;20111;-80
2023/10/18 11:25:00;;;;;;;;;;;;;;;11.89;74.22;100371.44;5095404;28;20082;-80
2023/10/18 11:27:37;;;;;;;12.07;6.13;;;;;;;11.99;74.06;100366.84;5230790;22;19974;-81
2023/10/18 11:30:15;;;;;;;12.18;6.10;;;;;;;12.18;72.95;100350.72;5074004;28;20464;-80
2023/10/18 11:32:53;;;;;;;11.35;6.10;;;;;;;12.21;73.22;100355.84;5074843;28;20021;-81
2023/10/18 11:35:42;;;;;;;14.73;6.38;;;;;;;12.31;73.17;100349.47;5074601;28;20392;-82
2023/10/18 11:38:11;;;;;;;10.73;5.63;;;;;;;12.39;74.03;100332.75;5072272;28;20060;-81
2023/10/18 11:43:10;;;;;;;12.57;6.40;;;;;;;12.49;71.92;100335.03;5013747;28;20046;-81
2023/10/18 11:45:39;;;;;;;12.70;6.10;;;;;;;12.50;72.66;100335.88;5015350;28;20025;-81
2023/10/18 11:48:06;;;;;;;10.20;5.80;;;;;;;12.57;72.44;100321.75;5015604;28;20022;-81
2023/10/18 11:50:42;;;;;;;11.77;5.97;;;;;;;12.61;72.54;100331.19;5016490;28;20022;-81
2023/10/18 11:53:14;;;;;;;9.83;5.40;;;;;;;12.77;72.20;100315.06;5014575;28;20037;-80
2023/10/18 11:55:58;;;;;;;11.27;5.90;;;;;;;12.77;71.54;100299.44;5015515;28;20033;-80
2023/10/18 11:58:32;;;;;;;10.68;5.55;;;;;;;12.70;70.22;100297.94;5012290;28;20049;-80
2023/10/18 12:01:00;;;;;;;11.63;6.00;;;;;;;12.72;71.77;100288.31;5015730;28;20030;-81
2023/10/18 12:03:28;;;;;;;12.07;5.60;;;;;;;12.75;70.13;100288.22;5015348;28;20026;-81
2023/10/18 12:05:57;;;;;;;9.80;4.95;;;;;;;12.79;70.47;100282.88;5014838;28;20425;-80
2023/10/18 12:08:24;;;;;;;10.50;5.60;;;;;;;12.86;71.80;100282.66;5015438;28;20033;-81
2023/10/18 12:11:27;;;;;;;;;;;;;;;12.85;68.22;100273.13;5007164;28;20068;-80
2023/10/18 12:14:01;;;;;;;9.70;5.00;;;;;;;12.79;70.98;100240.34;5013361;28;19921;-80
2023/10/18 12:16:42;;;;;;;11.25;5.38;;;;;;;12.89;70.86;100246.91;5013579;28;20026;-80
2023/10/18 12:19:42;;;;;;;11.25;6.00;;;;;;;13.01;67.42;100250.00;5014884;28;20109;-80
2023/10/18 12:22:15;;;;;;;11.82;5.80;;;;;;;13.00;68.45;100241.34;5014364;28;20038;-80
2023/10/18 12:24:55;;;;;;;10.20;5.50;;;;;;;13.04;68.41;100242.97;5014813;28;20108;-80
2023/10/18 12:27:52;;;;;;;11.30;5.88;;;;;;;13.00;68.72;100236.16;5014131;28;20026;-81
2023/10/18 12:33:43;;;;;;;11.57;5.82;;;;;;;13.02;66.99;100221.31;5014616;28;20132;-81
2023/10/18 12:39:20;;;;;;;11.15;5.65;;;;;;;13.02;67.84;100216.09;5591092;22;20067;-80
2023/10/18 12:41:46;;;;;;;10.93;5.35;;;;;;;13.00;66.70;100212.69;5083352;28;20028;-81
2023/10/18 12:44:11;;;;;;;11.95;6.00;;;;;;;13.03;67.15;100207.41;5088105;28;20422;-80